East Barnard, Vermont
Current Conditions -  °F | °C
As of 11:53 AM on Tuesday 27 Jan 2015 (Local Time) from KLEB Reporting Station
Haze Haze  
Wind Chill: -3°   Ceiling: 2300
Heat Index: 12°   Visibility: 6mi
Dew Point:   Wind: 14mph
Humidity: 73%   Direction: 320°NW
Pressure: 29.69"   Gusts: 20mph
Location:  43.7658°N, 72.5431°W
Report Text: KLEB 271653Z 32012G17KT 6SM HZ SCT018 BKN023 OVC032 M11/M15 A2969 RMK AO2 SNE48 SLP070 P0001 T11111150
Loading
Personal Weather Stations






























Interactive Weather Map New forecast layout! Learn more

10-Day Weather Forecast

Advertisements
Track Severe Weather on mobile